KCPW

Wolf Creek Pass Airport

Pagosa Springs, Colorado, USA
METAR KCPW 220954Z AUTO 22009KT 10SM SCT100 01/M01 A3037 RMK AO2
Observed Flight Rules
May-22 @ 09:54 UTC (16 minutes ago) Visual Flight Rules
Wind Visibility Clouds
220° at 9 knots 10 miles
  • Scattered at 10,000' AGL
Temperatures Readings
Current 1°C / 34°F
Dewpoint -1°C / 30°F
Humidity 87%
Altimeter 30.37" Hg
Pressure 1028 hPa
Elevation 3584
METAR KCPW 220954Z AUTO 22009KT 10SM SCT100 01/M01 A3037 RMK AO2
Observed Flight Rules
May-22 @ 09:54 UTC
(16 minutes ago)
VFR
Wind Visibility
220° at 9 knots 10 miles
Clouds
  • Scattered at 10,000' AGL
Temperature Dewpoint
1°C / 34°F -1°C / 30°F
Humidity Altimeter Pressure
87% 30.37" Hg 1028 hPa